Time;durP1;ratioP1;P1;durP2;ratioP2;P2;SDS_P1;SDS_P2;PMS_P1;PMS_P2;Temp;Humidity;BMP_temperature;BMP_pressure;BME280_temperature;BME280_humidity;BME280_pressure;Samples;Min_cycle;Max_cycle;Signal;HPM_P1;HPM_P2
2021/08/27 00:00:56;;;;;;;6.60;1.80;;;;;;;13.24;92.29;101187.28;4982999;28;20050;-83
2021/08/27 00:03:21;;;;;;;8.13;1.77;;;;;;;13.24;92.15;101177.34;4979013;28;20554;-83
2021/08/27 00:05:47;;;;;;;5.57;1.77;;;;;;;13.25;92.31;101183.56;4981511;28;20138;-83
2021/08/27 00:08:13;;;;;;;8.57;2.83;;;;;;;13.30;92.16;101175.84;4980864;28;20085;-85
2021/08/27 00:10:38;;;;;;;5.22;1.55;;;;;;;13.30;92.30;101178.53;4983415;28;20069;-83
2021/08/27 00:13:04;;;;;;;6.90;2.20;;;;;;;13.29;92.59;101175.00;4982435;28;20050;-86
2021/08/27 00:15:29;;;;;;;7.55;1.92;;;;;;;13.31;92.55;101177.50;4981729;28;20121;-85
2021/08/27 00:17:54;;;;;;;8.73;1.88;;;;;;;13.30;92.47;101173.97;4981453;28;20425;-83
2021/08/27 00:20:20;;;;;;;7.30;1.67;;;;;;;13.32;92.23;101174.66;4982240;28;20058;-85
2021/08/27 00:22:45;;;;;;;8.50;1.63;;;;;;;13.37;91.92;101163.34;4981846;28;20138;-83
2021/08/27 00:25:11;;;;;;;6.80;1.50;;;;;;;13.37;91.75;101157.09;4965150;28;20470;-84
2021/08/27 00:27:38;;;;;;;7.07;1.90;;;;;;;13.37;91.98;101155.25;4980549;28;20038;-85
2021/08/27 00:30:04;;;;;;;10.30;1.63;;;;;;;13.37;91.97;101149.84;4977271;28;20137;-83
2021/08/27 00:32:30;;;;;;;6.75;1.83;;;;;;;13.37;92.30;101157.94;4980979;28;20220;-83
2021/08/27 00:34:56;;;;;;;7.65;2.10;;;;;;;13.34;92.29;101165.53;4983446;28;20093;-85
2021/08/27 00:37:23;;;;;;;8.35;1.88;;;;;;;13.36;92.60;101174.31;4980999;28;20065;-83
2021/08/27 00:39:48;;;;;;;8.45;1.70;;;;;;;13.32;92.62;101163.88;4982291;28;20470;-84
2021/08/27 00:42:14;;;;;;;7.30;1.95;;;;;;;13.35;92.54;101164.50;4979068;28;20038;-85
2021/08/27 00:44:39;;;;;;;5.07;1.48;;;;;;;13.33;92.79;101164.72;5010933;28;20101;-83
2021/08/27 00:47:05;;;;;;;5.43;1.95;;;;;;;13.34;92.83;101168.22;4981057;28;20038;-84
2021/08/27 00:49:31;;;;;;;9.73;1.70;;;;;;;13.27;92.88;101166.22;4977874;28;20077;-84
2021/08/27 00:51:57;;;;;;;5.38;1.70;;;;;;;13.27;93.15;101170.78;4975778;28;20531;-84
2021/08/27 00:54:22;;;;;;;10.52;2.00;;;;;;;13.25;93.32;101168.25;4981033;28;20165;-83
2021/08/27 00:56:50;;;;;;;10.38;1.92;;;;;;;13.25;93.00;101162.88;4979905;28;20038;-83
2021/08/27 00:59:15;;;;;;;8.85;2.00;;;;;;;13.26;92.83;101164.56;4982731;28;20062;-85
2021/08/27 01:01:42;;;;;;;5.32;1.50;;;;;;;13.28;93.06;101161.69;4977693;28;20133;-85
2021/08/27 01:04:07;;;;;;;4.82;1.60;;;;;;;13.24;93.54;101161.16;4982549;28;20512;-84
2021/08/27 01:06:50;;;;;;;7.38;2.15;;;;;;;13.23;93.67;101154.06;4978237;28;20074;-83
2021/08/27 01:09:36;;;;;;;7.38;1.83;;;;;;;13.22;93.62;101155.09;4982405;28;20042;-84
2021/08/27 01:12:11;;;;;;;6.80;1.88;;;;;;;13.18;93.98;101156.47;4978158;28;20097;-83
2021/08/27 01:14:54;;;;;;;9.43;2.35;;;;;;;13.17;94.66;101152.06;5014804;28;20038;-84
2021/08/27 01:17:24;;;;;;;7.20;2.00;;;;;;;13.09;95.33;101149.41;4984124;28;20129;-83
2021/08/27 01:20:09;;;;;;;9.68;1.90;;;;;;;13.16;94.87;101155.78;4998548;28;20439;-85
2021/08/27 01:23:13;;;;;;;7.95;1.75;;;;;;;13.16;94.74;101146.88;5007196;28;20053;-84
2021/08/27 01:25:44;;;;;;;7.65;2.10;;;;;;;13.16;94.51;101153.09;4994759;28;20475;-84
2021/08/27 01:28:11;;;;;;;7.53;1.98;;;;;;;13.17;94.51;101151.22;4985843;28;20045;-84
2021/08/27 01:30:59;;;;;;;6.72;1.70;;;;;;;13.21;94.02;101153.44;4986382;28;20050;-85
2021/08/27 01:33:26;;;;;;;6.55;1.95;;;;;;;13.22;94.41;101152.41;4984008;28;20121;-84
2021/08/27 01:36:03;;;;;;;6.63;1.73;;;;;;;13.23;94.01;101148.69;4986494;28;20046;-84
2021/08/27 01:38:33;;;;;;;6.13;1.58;;;;;;;13.22;94.84;101157.78;4981276;28;20080;-83
2021/08/27 01:40:59;;;;;;;6.38;2.00;;;;;;;13.24;94.06;101153.06;4983914;28;20105;-83
2021/08/27 01:43:28;;;;;;;7.78;2.05;;;;;;;13.26;93.94;101156.47;4984665;28;20384;-84
2021/08/27 01:45:58;;;;;;;6.72;1.67;;;;;;;13.28;93.96;101161.69;4985873;28;20062;-84
2021/08/27 01:48:26;;;;;;;8.38;2.10;;;;;;;13.22;94.53;101156.94;4986110;28;20035;-84
2021/08/27 01:50:54;;;;;;;7.03;1.90;;;;;;;13.21;94.63;101156.13;4999271;28;20070;-85
2021/08/27 01:53:22;;;;;;;5.80;1.75;;;;;;;13.22;94.09;101149.69;4985379;28;20491;-84
2021/08/27 01:55:48;;;;;;;8.00;1.90;;;;;;;13.21;94.53;101144.50;4986463;28;20041;-83
2021/08/27 01:58:13;;;;;;;4.50;1.73;;;;;;;13.23;93.84;101153.22;4984178;28;20065;-85
2021/08/27 02:00:40;;;;;;;8.80;2.13;;;;;;;13.22;94.61;101147.00;4985201;28;20480;-85
2021/08/27 02:03:07;;;;;;;5.47;1.80;;;;;;;13.24;94.37;101155.78;4982220;28;20561;-84
2021/08/27 02:05:33;;;;;;;10.95;1.98;;;;;;;13.23;94.23;101151.38;4968548;28;20065;-82
2021/08/27 02:08:01;;;;;;;6.88;1.83;;;;;;;13.23;94.28;101158.63;4983848;28;20042;-83
2021/08/27 02:10:27;;;;;;;5.45;1.80;;;;;;;13.25;94.51;101162.88;4984597;28;20057;-83
2021/08/27 02:12:53;;;;;;;7.35;2.08;;;;;;;13.24;94.51;101169.25;5000356;28;20058;-84
2021/08/27 02:15:21;;;;;;;7.57;1.88;;;;;;;13.28;94.50;101172.47;4984483;28;20135;-83
2021/08/27 02:17:46;;;;;;;7.05;1.73;;;;;;;13.29;95.07;101180.38;4985905;28;20034;-82
2021/08/27 02:20:12;;;;;;;6.63;2.13;;;;;;;13.29;94.61;101183.09;4977781;28;20050;-85
2021/08/27 02:22:38;;;;;;;5.45;2.00;;;;;;;13.31;94.53;101175.66;4984132;28;20082;-83
2021/08/27 02:25:12;;;;;;;7.78;1.98;;;;;;;13.35;94.79;101172.59;4982463;28;20054;-83
2021/08/27 02:27:40;;;;;;;7.97;1.90;;;;;;;13.34;94.55;101171.75;4985052;28;20258;-84
2021/08/27 02:30:07;;;;;;;6.70;2.13;;;;;;;13.37;94.46;101162.50;4983255;28;20045;-82
2021/08/27 02:32:33;;;;;;;6.40;1.88;;;;;;;13.36;94.77;101168.91;4986082;28;20454;-83
2021/08/27 02:35:01;;;;;;;6.47;1.88;;;;;;;13.38;95.19;101166.88;4977719;28;20057;-83
2021/08/27 02:37:29;;;;;;;8.30;2.13;;;;;;;13.39;94.63;101164.00;4985650;28;20046;-84
2021/08/27 02:39:57;;;;;;;6.45;1.70;;;;;;;13.37;95.64;101168.72;4979237;28;20042;-85
2021/08/27 02:42:24;;;;;;;11.27;2.28;;;;;;;13.34;95.55;101160.97;4983688;28;20527;-83
2021/08/27 02:44:50;;;;;;;10.93;2.10;;;;;;;13.31;95.89;101158.63;4985076;28;20046;-86
2021/08/27 02:47:15;;;;;;;8.05;2.63;;;;;;;13.32;95.75;101163.00;4984721;28;20565;-83
2021/08/27 02:49:41;;;;;;;9.25;2.30;;;;;;;13.29;95.52;101157.97;4984420;28;20122;-85
2021/08/27 02:52:24;;;;;;;5.55;2.15;;;;;;;13.29;96.01;101147.19;4983784;28;20395;-83
2021/08/27 02:55:03;;;;;;;8.05;2.33;;;;;;;13.29;96.24;101156.13;4984406;28;20042;-84
2021/08/27 02:57:32;;;;;;;;;;;;;;;13.31;96.12;101161.34;4996026;28;20511;-83
2021/08/27 03:00:00;;;;;;;6.47;2.30;;;;;;;13.20;97.20;101158.97;4985007;28;19917;-83
2021/08/27 03:02:27;;;;;;;7.53;1.80;;;;;;;13.21;97.23;101164.19;4985440;28;20074;-84
2021/08/27 03:05:27;;;;;;;7.10;1.73;;;;;;;13.21;97.52;101160.69;4983740;28;20038;-83
2021/08/27 03:08:02;;;;;;;10.38;2.65;;;;;;;13.20;97.61;101167.88;4967893;28;20133;-85
2021/08/27 03:10:32;;;;;;;7.93;2.13;;;;;;;13.19;97.98;101160.84;4998936;28;20069;-85
2021/08/27 03:13:08;;;;;;;8.02;2.20;;;;;;;13.22;97.89;101167.72;4984975;28;20050;-84
2021/08/27 03:15:42;;;;;;;10.57;2.00;;;;;;;13.21;98.07;101166.91;4971209;28;20499;-84
2021/08/27 03:18:13;;;;;;;8.43;2.10;;;;;;;13.25;97.57;101167.38;4985333;28;20046;-84
2021/08/27 03:20:43;;;;;;;11.68;2.25;;;;;;;13.23;98.59;101175.63;4987464;28;20045;-84
2021/08/27 03:23:13;;;;;;;7.85;2.35;;;;;;;13.27;97.61;101160.84;4987710;28;20125;-84
2021/08/27 03:25:42;;;;;;;7.00;2.20;;;;;;;13.26;98.65;101164.56;4987458;28;20468;-84
2021/08/27 03:28:13;;;;;;;9.65;2.33;;;;;;;13.23;98.34;101164.00;4984357;28;20042;-83
2021/08/27 03:30:40;;;;;;;9.48;2.45;;;;;;;13.25;97.87;101164.69;4983260;28;20068;-85
2021/08/27 03:33:10;;;;;;;7.70;2.40;;;;;;;13.24;98.17;101163.03;4997857;28;20053;-85
2021/08/27 03:35:36;;;;;;;7.68;2.22;;;;;;;13.25;98.14;101167.38;4983064;28;20067;-84
2021/08/27 03:38:04;;;;;;;4.63;2.10;;;;;;;13.24;97.93;101166.56;4966313;28;20084;-84
2021/08/27 03:40:33;;;;;;;6.55;1.90;;;;;;;13.23;97.73;101164.84;4983300;28;20054;-83
2021/08/27 03:43:00;;;;;;;7.63;1.80;;;;;;;13.24;97.77;101165.72;4967328;28;20038;-83
2021/08/27 03:45:29;;;;;;;7.07;2.55;;;;;;;13.29;96.84;101168.75;4986570;28;20044;-84
2021/08/27 03:47:55;;;;;;;7.00;1.80;;;;;;;13.25;97.11;101165.56;4983467;28;20040;-84
2021/08/27 03:50:22;;;;;;;7.38;2.30;;;;;;;13.28;97.29;101167.91;4970431;28;20050;-83
2021/08/27 03:52:50;;;;;;;8.07;2.55;;;;;;;13.28;97.25;101169.75;4987924;28;20069;-84
2021/08/27 03:55:16;;;;;;;9.00;2.90;;;;;;;13.27;97.53;101174.31;4981932;28;20133;-84
2021/08/27 03:57:44;;;;;;;12.68;2.85;;;;;;;13.26;97.97;101174.47;4979014;28;20104;-84
2021/08/27 04:00:11;;;;;;;9.82;2.60;;;;;;;13.26;97.80;101175.34;4979299;28;20488;-84
2021/08/27 04:02:37;;;;;;;5.00;2.22;;;;;;;13.25;97.88;101168.25;4984591;28;20475;-84
2021/08/27 04:05:11;;;;;;;11.48;2.67;;;;;;;13.20;98.99;101173.28;4982645;28;20535;-86
2021/08/27 04:07:38;;;;;;;8.85;2.72;;;;;;;13.24;98.43;101168.41;4975287;28;20057;-84
2021/08/27 04:10:05;;;;;;;6.25;2.13;;;;;;;13.17;99.24;101165.53;4982228;28;20517;-83
2021/08/27 04:12:31;;;;;;;6.50;2.22;;;;;;;13.16;98.57;101163.88;4996943;28;20105;-87
2021/08/27 04:14:56;;;;;;;8.05;2.75;;;;;;;13.17;99.24;101164.72;4977780;28;20523;-83
2021/08/27 04:17:21;;;;;;;6.82;2.90;;;;;;;13.17;98.62;101165.53;5007928;28;20047;-83
2021/08/27 04:19:47;;;;;;;8.80;2.83;;;;;;;13.13;99.77;101169.59;4981271;28;20035;-83
2021/08/27 04:22:12;;;;;;;5.72;2.50;;;;;;;13.09;99.96;101163.72;4978359;28;20066;-83
2021/08/27 04:24:37;;;;;;;13.55;3.03;;;;;;;13.10;99.21;101161.88;4983112;28;20045;-84
2021/08/27 04:27:03;;;;;;;8.30;2.95;;;;;;;13.08;99.72;101174.66;4983647;28;20101;-84
2021/08/27 04:29:28;;;;;;;7.70;2.72;;;;;;;13.05;100.00;101172.31;4983768;28;20081;-82
2021/08/27 04:31:56;;;;;;;12.43;3.75;;;;;;;13.06;100.00;101166.78;4979940;28;20050;-83
2021/08/27 04:34:22;;;;;;;8.95;2.53;;;;;;;13.06;100.00;101172.16;4981236;28;20704;-82
2021/08/27 04:36:47;;;;;;;9.13;2.72;;;;;;;13.06;100.00;101163.22;4984423;28;20121;-84
2021/08/27 04:39:12;;;;;;;12.00;3.00;;;;;;;13.04;100.00;101171.47;4977487;28;20057;-83
2021/08/27 04:41:38;;;;;;;7.45;2.70;;;;;;;13.00;100.00;101180.06;4970266;28;20185;-84
2021/08/27 04:44:04;;;;;;;11.30;2.95;;;;;;;13.05;100.00;101175.00;4974801;28;20050;-83
2021/08/27 04:46:29;;;;;;;7.22;3.00;;;;;;;13.05;100.00;101178.53;4980946;28;20045;-82
2021/08/27 04:48:55;;;;;;;9.23;3.10;;;;;;;13.07;100.00;101184.59;4983489;28;20125;-83
2021/08/27 04:51:20;;;;;;;9.55;2.80;;;;;;;13.10;100.00;101189.66;4980921;28;20489;-82
2021/08/27 04:53:45;;;;;;;7.75;3.28;;;;;;;13.16;100.00;101187.28;4985078;28;20046;-83
2021/08/27 04:56:11;;;;;;;8.50;2.65;;;;;;;13.16;100.00;101190.81;4980299;28;20046;-84
2021/08/27 04:58:36;;;;;;;6.72;2.60;;;;;;;13.16;100.00;101195.38;4979717;28;20034;-84
2021/08/27 05:01:02;;;;;;;9.68;2.60;;;;;;;13.17;100.00;101191.66;4980954;28;20076;-84
2021/08/27 05:03:27;;;;;;;8.27;2.60;;;;;;;13.21;100.00;101193.84;4980558;28;20074;-83
2021/08/27 05:05:52;;;;;;;9.98;3.22;;;;;;;13.22;100.00;101190.13;4982717;28;20125;-82
2021/08/27 05:08:18;;;;;;;10.27;2.80;;;;;;;13.18;100.00;101198.75;4980382;28;20050;-84
2021/08/27 05:10:43;;;;;;;9.60;3.38;;;;;;;13.20;100.00;101199.41;4980257;28;20252;-84
2021/08/27 05:13:09;;;;;;;12.73;3.40;;;;;;;13.21;100.00;101193.00;4996833;28;20050;-83
2021/08/27 05:15:34;;;;;;;9.20;3.45;;;;;;;13.24;100.00;101193.50;4975256;28;20073;-82
2021/08/27 05:17:59;;;;;;;10.35;3.28;;;;;;;13.24;100.00;101190.81;4981204;28;20108;-82
2021/08/27 05:20:25;;;;;;;5.53;2.70;;;;;;;13.26;100.00;101183.44;4982808;28;20081;-82
2021/08/27 05:22:51;;;;;;;11.18;3.88;;;;;;;13.27;100.00;101197.75;4981161;28;20241;-82
2021/08/27 05:25:16;;;;;;;8.52;3.08;;;;;;;13.25;100.00;101189.81;4980134;28;20046;-82
2021/08/27 05:27:42;;;;;;;9.60;3.15;;;;;;;13.23;100.00;101190.97;4981088;28;20089;-83
2021/08/27 05:30:10;;;;;;;9.23;2.92;;;;;;;13.22;100.00;101202.75;4980664;28;21010;-82
2021/08/27 05:32:36;;;;;;;9.98;3.05;;;;;;;13.24;100.00;101196.19;4978073;28;20057;-82
2021/08/27 05:35:03;;;;;;;7.80;3.20;;;;;;;13.28;100.00;101197.56;4978983;28;20050;-82
2021/08/27 05:37:28;;;;;;;14.13;3.58;;;;;;;13.34;100.00;101189.78;4980931;28;20056;-82
2021/08/27 05:39:53;;;;;;;9.32;3.30;;;;;;;13.30;100.00;101189.31;4980712;28;20042;-82
2021/08/27 05:42:19;;;;;;;10.88;3.63;;;;;;;13.34;100.00;101197.88;4976510;28;20049;-83
2021/08/27 05:44:45;;;;;;;7.70;3.00;;;;;;;13.35;100.00;101202.25;4968963;28;20042;-82
2021/08/27 05:47:11;;;;;;;11.45;3.50;;;;;;;13.36;100.00;101198.56;4976588;28;20772;-82
2021/08/27 05:49:36;;;;;;;9.15;3.13;;;;;;;13.35;100.00;101205.81;4980643;28;20120;-82
2021/08/27 05:52:03;;;;;;;10.10;3.45;;;;;;;13.38;100.00;101207.28;4980408;28;20411;-83
2021/08/27 05:54:28;;;;;;;9.10;3.40;;;;;;;13.40;100.00;101213.38;4978339;28;20411;-82
2021/08/27 05:56:55;;;;;;;8.98;3.15;;;;;;;13.43;100.00;101215.72;5010742;28;20050;-82
2021/08/27 05:59:21;;;;;;;8.40;3.00;;;;;;;13.45;100.00;101211.00;4980047;28;20066;-82
2021/08/27 06:01:46;;;;;;;10.43;3.13;;;;;;;13.47;100.00;101214.38;4981213;28;20129;-82
2021/08/27 06:04:13;;;;;;;9.98;3.80;;;;;;;13.48;100.00;101205.25;4978362;28;20514;-82
2021/08/27 06:06:38;;;;;;;11.32;3.20;;;;;;;13.50;100.00;101209.47;4979752;28;20129;-83
2021/08/27 06:09:05;;;;;;;8.07;2.80;;;;;;;13.52;100.00;101211.97;4985402;28;20406;-83
2021/08/27 06:11:32;;;;;;;12.85;3.00;;;;;;;13.54;100.00;101216.19;4980205;28;20379;-83
2021/08/27 06:13:57;;;;;;;7.60;2.92;;;;;;;13.60;100.00;101217.34;4979338;28;20048;-83
2021/08/27 06:16:22;;;;;;;10.25;3.45;;;;;;;13.60;100.00;101220.03;4978862;28;20121;-83
2021/08/27 06:18:48;;;;;;;7.93;2.70;;;;;;;13.60;100.00;101217.34;4977349;28;20180;-83
2021/08/27 06:21:13;;;;;;;10.85;3.55;;;;;;;13.61;100.00;101220.88;4973068;28;20413;-83
2021/08/27 06:23:38;;;;;;;11.57;3.53;;;;;;;13.62;100.00;101212.63;4978173;28;20691;-84
2021/08/27 06:26:04;;;;;;;14.98;4.60;;;;;;;13.64;100.00;101216.00;4978334;28;20039;-83
2021/08/27 06:28:29;;;;;;;10.80;4.10;;;;;;;13.68;100.00;101206.53;4982863;28;20523;-85
2021/08/27 06:30:55;;;;;;;10.48;3.60;;;;;;;13.67;100.00;101204.88;4975360;28;20057;-83
2021/08/27 06:33:20;;;;;;;12.07;4.28;;;;;;;13.73;100.00;101201.47;4976835;28;20100;-84
2021/08/27 06:35:46;;;;;;;8.07;3.88;;;;;;;13.74;100.00;101205.00;4976241;28;20311;-84
2021/08/27 06:38:24;;;;;;;10.68;3.85;;;;;;;13.78;100.00;101206.31;4992253;28;20039;-84
2021/08/27 06:41:01;;;;;;;8.38;3.92;;;;;;;13.82;100.00;101206.81;4979022;28;20074;-84
2021/08/27 06:43:30;;;;;;;10.57;3.97;;;;;;;13.81;100.00;101205.13;4978694;28;20256;-84
2021/08/27 06:45:57;;;;;;;9.82;4.40;;;;;;;13.83;100.00;101208.50;4977598;28;20058;-84
2021/08/27 06:48:22;;;;;;;11.20;4.45;;;;;;;13.87;100.00;101201.75;4979952;28;20085;-84
2021/08/27 06:50:48;;;;;;;13.15;5.95;;;;;;;13.91;100.00;101206.59;4983470;28;20050;-84
2021/08/27 06:53:14;;;;;;;10.05;5.35;;;;;;;13.91;100.00;101203.91;4977251;28;20265;-84
2021/08/27 06:55:39;;;;;;;10.88;5.72;;;;;;;13.99;100.00;101203.03;4981745;28;20074;-81
2021/08/27 06:58:05;;;;;;;12.82;6.53;;;;;;;14.03;100.00;101204.34;4980961;28;20160;-81
2021/08/27 07:00:31;;;;;;;14.95;5.95;;;;;;;14.09;100.00;101198.22;4997869;28;20047;-82
2021/08/27 07:02:57;;;;;;;9.02;5.00;;;;;;;14.12;100.00;101205.97;4980021;28;20042;-81
2021/08/27 07:05:22;;;;;;;13.65;5.28;;;;;;;14.11;100.00;101207.00;4980819;28;20392;-81
2021/08/27 07:07:48;;;;;;;10.40;4.80;;;;;;;14.15;100.00;101200.22;4983842;28;20381;-81
2021/08/27 07:10:14;;;;;;;9.98;4.72;;;;;;;14.20;100.00;101195.13;4975297;28;20510;-81
2021/08/27 07:12:40;;;;;;;8.50;4.32;;;;;;;14.19;100.00;101206.13;4982718;28;20069;-81
2021/08/27 07:15:06;;;;;;;9.88;4.00;;;;;;;14.21;100.00;101209.47;4982945;28;20058;-81
2021/08/27 07:17:31;;;;;;;8.48;4.53;;;;;;;14.26;100.00;101207.09;4981471;28;21547;-81
2021/08/27 07:19:57;;;;;;;10.95;4.57;;;;;;;14.31;100.00;101211.97;4982418;28;20050;-81
2021/08/27 07:22:23;;;;;;;6.72;3.58;;;;;;;14.30;100.00;101205.72;4980029;28;20194;-81
2021/08/27 07:24:48;;;;;;;6.20;3.17;;;;;;;14.33;100.00;101204.53;4959477;28;20065;-81
2021/08/27 07:27:14;;;;;;;8.60;2.92;;;;;;;14.40;100.00;101205.47;4981803;28;20078;-81
2021/08/27 07:29:39;;;;;;;9.60;2.80;;;;;;;14.42;100.00;101204.28;4980358;28;20080;-81
2021/08/27 07:32:10;;;;;;;11.73;3.25;;;;;;;14.47;100.00;101214.53;4979500;28;20265;-82
2021/08/27 07:34:36;;;;;;;7.93;2.78;;;;;;;14.52;100.00;101209.47;4983130;28;20105;-82
2021/08/27 07:37:01;;;;;;;6.82;2.47;;;;;;;14.56;100.00;101213.50;4984101;28;20038;-82
2021/08/27 07:39:26;;;;;;;7.00;2.92;;;;;;;14.60;100.00;101220.22;4979851;28;20089;-82
2021/08/27 07:41:53;;;;;;;9.52;2.83;;;;;;;14.70;100.00;101216.41;4982252;28;20061;-82
2021/08/27 07:44:18;;;;;;;8.27;2.63;;;;;;;14.74;100.00;101221.28;4980375;28;20051;-82
2021/08/27 07:46:44;;;;;;;9.77;2.65;;;;;;;14.83;100.00;101216.66;4964234;28;20046;-82
2021/08/27 07:49:09;;;;;;;10.65;3.60;;;;;;;14.83;100.00;101213.97;4980372;28;20066;-81
2021/08/27 07:51:34;;;;;;;9.45;3.47;;;;;;;14.83;100.00;101222.06;4981028;28;20057;-81
2021/08/27 07:54:00;;;;;;;9.27;3.13;;;;;;;14.78;100.00;101219.91;4973427;28;20050;-81
2021/08/27 07:56:25;;;;;;;7.85;3.60;;;;;;;14.77;100.00;101210.13;4974408;28;20120;-82
2021/08/27 07:58:51;;;;;;;10.00;3.40;;;;;;;14.74;100.00;101212.34;4978633;28;20117;-82
2021/08/27 08:01:16;;;;;;;10.68;3.42;;;;;;;14.82;100.00;101210.44;4980759;28;20509;-82
2021/08/27 08:03:41;;;;;;;8.57;3.40;;;;;;;14.81;100.00;101213.28;4982227;28;20133;-82
2021/08/27 08:06:07;;;;;;;6.45;2.70;;;;;;;14.87;100.00;101209.88;4978944;28;20054;-81
2021/08/27 08:08:32;;;;;;;10.40;3.42;;;;;;;14.89;100.00;101216.78;4979008;28;20482;-82
2021/08/27 08:10:58;;;;;;;6.45;2.83;;;;;;;14.95;100.00;101209.78;4982621;28;20260;-82
2021/08/27 08:13:23;;;;;;;8.77;3.13;;;;;;;15.00;100.00;101212.78;4982247;28;20070;-82
2021/08/27 08:15:49;;;;;;;7.30;2.95;;;;;;;15.08;100.00;101209.19;4980299;28;20042;-82
2021/08/27 08:18:14;;;;;;;10.52;3.30;;;;;;;15.12;100.00;101199.66;4963540;28;20053;-82
2021/08/27 08:20:39;;;;;;;9.52;3.15;;;;;;;15.10;100.00;101197.16;4980803;28;20105;-81
2021/08/27 08:23:05;;;;;;;8.95;2.83;;;;;;;15.16;100.00;101203.69;4980443;28;20291;-82
2021/08/27 08:25:31;;;;;;;10.30;3.05;;;;;;;15.22;100.00;101202.97;4982494;28;20057;-82
2021/08/27 08:27:56;;;;;;;10.93;2.70;;;;;;;15.23;100.00;101207.34;4980161;28;20047;-83
2021/08/27 08:30:21;;;;;;;7.90;2.53;;;;;;;15.23;100.00;101201.09;4978846;28;20079;-82
2021/08/27 08:32:47;;;;;;;9.60;2.58;;;;;;;15.22;100.00;101188.59;4977449;28;20460;-82
2021/08/27 08:35:12;;;;;;;10.52;2.67;;;;;;;15.22;100.00;101207.50;4967933;28;20436;-84
2021/08/27 08:37:40;;;;;;;9.27;2.60;;;;;;;15.23;100.00;101204.63;4980803;28;20121;-83
2021/08/27 08:40:07;;;;;;;5.40;2.00;;;;;;;15.26;100.00;101200.72;4980772;28;20042;-83
2021/08/27 08:42:33;;;;;;;7.65;2.58;;;;;;;15.25;99.63;101208.00;4979984;28;20034;-82
2021/08/27 08:44:58;;;;;;;8.52;2.40;;;;;;;15.24;99.32;101210.88;4994623;28;20057;-83
2021/08/27 08:47:26;;;;;;;7.18;2.40;;;;;;;15.32;99.57;101210.78;4977250;28;20054;-83
2021/08/27 08:49:52;;;;;;;6.10;1.88;;;;;;;15.29;99.31;101206.59;4963535;28;20111;-83
2021/08/27 08:52:22;;;;;;;8.77;2.35;;;;;;;15.36;99.28;101201.28;4983588;28;20044;-82
2021/08/27 08:54:49;;;;;;;9.55;2.45;;;;;;;15.42;98.96;101195.16;4978687;28;20131;-82
2021/08/27 08:57:15;;;;;;;9.57;2.78;;;;;;;15.47;98.27;101198.09;4981742;28;20125;-82
2021/08/27 08:59:41;;;;;;;7.03;2.35;;;;;;;15.56;97.89;101202.41;4980297;28;20141;-82
2021/08/27 09:02:08;;;;;;;7.95;2.30;;;;;;;15.56;98.10;101199.72;4976961;28;20050;-82
2021/08/27 09:04:33;;;;;;;6.47;2.45;;;;;;;15.68;97.98;101210.06;4991977;28;20124;-83
2021/08/27 09:06:59;;;;;;;7.47;2.22;;;;;;;15.70;96.77;101198.03;4979742;28;20508;-83
2021/08/27 09:09:33;;;;;;;7.32;2.40;;;;;;;15.77;96.65;101198.16;4978612;28;20038;-82
2021/08/27 09:11:59;;;;;;;10.77;2.17;;;;;;;15.96;97.29;101188.56;4981551;28;20172;-82
2021/08/27 09:14:30;;;;;;;9.77;2.38;;;;;;;16.05;95.50;101200.97;4976194;28;20034;-82
2021/08/27 09:17:04;;;;;;;5.95;1.95;;;;;;;16.10;94.13;101195.81;4979572;28;20256;-82
2021/08/27 09:19:53;;;;;;;8.80;1.70;;;;;;;16.16;92.37;101191.50;4979249;28;20125;-82
2021/08/27 09:22:18;;;;;;;;;;;;;;;16.15;93.47;101190.69;4977584;28;20053;-82
2021/08/27 09:24:46;;;;;;;3.90;1.30;;;;;;;16.13;93.56;101194.59;4980271;28;19917;-82
2021/08/27 09:27:12;;;;;;;5.85;1.70;;;;;;;16.16;92.84;101192.34;4980489;28;20052;-83
2021/08/27 09:29:38;;;;;;;6.15;1.75;;;;;;;16.30;92.04;101198.75;4984067;28;20041;-82
2021/08/27 09:32:27;;;;;;;5.80;1.40;;;;;;;16.45;92.24;101199.53;4980679;28;20039;-83
2021/08/27 09:35:06;;;;;;;;;;;;;;;16.52;91.20;101202.31;4998929;28;20046;-83
2021/08/27 09:37:42;;;;;;;;;;;;;;;16.63;91.93;101192.81;4995171;28;20314;-83
2021/08/27 09:40:10;;;;;;;5.10;1.30;;;;;;;16.57;90.58;101180.91;4988131;28;20170;-83
2021/08/27 09:42:37;;;;;;;5.10;1.50;;;;;;;16.66;90.88;101203.28;4981323;28;20506;-83
2021/08/27 09:45:03;;;;;;;5.40;1.55;;;;;;;16.69;90.78;101198.31;4978083;28;20102;-83
2021/08/27 09:47:28;;;;;;;7.63;1.85;;;;;;;16.86;90.79;101198.91;4981757;28;20492;-83
2021/08/27 09:49:53;;;;;;;7.50;1.77;;;;;;;16.88;90.14;101196.81;4980989;28;20180;-83
2021/08/27 09:52:19;;;;;;;8.40;1.83;;;;;;;17.00;89.48;101190.88;4978086;28;20038;-83
2021/08/27 09:54:46;;;;;;;7.30;1.90;;;;;;;16.99;89.39;101186.50;4977708;28;20258;-82
2021/08/27 09:57:12;;;;;;;4.65;1.10;;;;;;;16.98;87.23;101190.25;4963819;28;20082;-83
2021/08/27 09:59:46;;;;;;;5.07;1.65;;;;;;;16.97;87.36;101185.84;4981429;28;20092;-83
2021/08/27 10:02:14;;;;;;;6.22;1.67;;;;;;;17.16;88.27;101187.88;4977535;28;20046;-83
2021/08/27 10:04:54;;;;;;;5.68;1.60;;;;;;;17.36;85.65;101177.16;4974566;28;20031;-83
2021/08/27 10:07:34;;;;;;;4.60;1.40;;;;;;;17.40;83.95;101173.00;4977508;28;20096;-83
2021/08/27 10:10:02;;;;;;;4.68;1.55;;;;;;;17.36;84.37;101180.69;4976972;28;20043;-83
2021/08/27 10:12:30;;;;;;;5.53;1.90;;;;;;;17.41;84.93;101176.56;4962600;28;20287;-82
2021/08/27 10:14:56;;;;;;;6.43;2.03;;;;;;;17.53;84.72;101166.81;4977932;28;20065;-83
2021/08/27 10:17:21;;;;;;;7.15;1.50;;;;;;;17.65;83.83;101154.34;4978478;28;20294;-83
2021/08/27 10:19:47;;;;;;;7.88;1.88;;;;;;;17.67;82.14;101165.00;4980696;28;20078;-83
2021/08/27 10:22:12;;;;;;;4.70;1.52;;;;;;;17.83;82.13;101167.38;4978967;28;20050;-83
2021/08/27 10:24:40;;;;;;;3.88;1.10;;;;;;;17.97;82.65;101162.84;4999964;28;20053;-83
2021/08/27 10:27:10;;;;;;;7.78;1.40;;;;;;;18.11;78.64;101155.59;4982593;28;20169;-83
2021/08/27 10:29:46;;;;;;;6.15;1.45;;;;;;;18.21;80.60;101139.72;4982966;28;20066;-83
2021/08/27 10:32:12;;;;;;;6.40;2.03;;;;;;;18.02;81.49;101161.19;4979789;28;20112;-83
2021/08/27 10:34:41;;;;;;;4.50;1.55;;;;;;;17.93;83.28;101156.16;4984066;28;20054;-83
2021/08/27 10:37:08;;;;;;;5.10;1.60;;;;;;;17.87;83.20;101157.81;4983294;28;20050;-83
2021/08/27 10:39:37;;;;;;;4.25;1.27;;;;;;;17.86;81.05;101149.84;4983554;28;20476;-83
2021/08/27 10:42:03;;;;;;;6.32;1.65;;;;;;;17.90;79.65;101151.16;4996156;28;20046;-83
2021/08/27 10:44:49;;;;;;;5.35;1.40;;;;;;;17.95;80.58;101157.63;4997699;28;20511;-83
2021/08/27 10:47:15;;;;;;;5.65;1.40;;;;;;;17.96;79.87;101153.88;4982938;28;20038;-83
2021/08/27 10:49:47;;;;;;;6.05;1.35;;;;;;;17.96;81.37;101153.88;4977677;28;20046;-82
2021/08/27 10:52:41;;;;;;;3.10;1.10;;;;;;;18.01;80.79;101155.94;4981881;28;20381;-83
2021/08/27 10:55:15;;;;;;;6.07;1.45;;;;;;;17.98;81.38;101156.38;4978824;28;20042;-83
2021/08/27 10:57:48;;;;;;;4.20;1.40;;;;;;;17.86;81.19;101166.16;4994722;28;20132;-84
2021/08/27 11:00:28;;;;;;;5.07;1.48;;;;;;;17.74;83.62;101146.88;4978364;28;20049;-83
2021/08/27 11:02:54;;;;;;;4.80;1.30;;;;;;;17.67;83.15;101165.84;4963113;28;20093;-83
2021/08/27 11:05:46;;;;;;;5.88;1.50;;;;;;;17.51;84.38;101158.03;4964039;28;20047;-83
2021/08/27 11:08:26;;;;;;;3.75;1.40;;;;;;;17.51;86.94;101168.88;4957683;28;20083;-83
2021/08/27 11:11:10;;;;;;;;;;;;;;;17.48;86.52;101172.84;4964929;28;20488;-83
2021/08/27 11:13:37;;;;;;;6.65;1.60;;;;;;;17.30;86.73;101159.81;5004359;28;19933;-84
2021/08/27 11:16:21;;;;;;;3.58;1.30;;;;;;;17.34;87.33;101174.63;4983788;28;20096;-83
2021/08/27 11:18:51;;;;;;;4.50;1.40;;;;;;;17.46;86.63;101168.63;4996296;28;20056;-83
2021/08/27 11:21:35;;;;;;;6.18;1.75;;;;;;;17.68;85.18;101164.78;4980071;28;20602;-83
2021/08/27 11:24:22;;;;;;;8.10;1.58;;;;;;;17.76;85.57;101159.19;4987769;28;20034;-83
2021/08/27 11:27:09;;;;;;;5.75;1.25;;;;;;;17.76;84.89;101172.75;4999393;28;20449;-82